Time,TemperatureF,DewpointF,PressureIn,WindDirection,WindDirectionDegrees,WindSpeedMPH,WindSpeedGustMPH,Humidity,HourlyPrecipIn,Conditions,Clouds,dailyrainin,SoftwareType,DateUTC
2013-01-04 00:10:00,24.4,18.2,30.04,NW,315,4.7,-999.0,77,-99.99,,,0.00,Acu-Link.com,2013-01-04 05:10:00,
2013-01-04 00:26:00,23.4,17.6,30.04,West,270,6.8,-999.0,78,-99.99,,,0.00,Acu-Link.com,2013-01-04 05:26:00,
2013-01-04 00:41:00,22.8,17.0,30.05,West,270,5.8,-999.0,78,-99.99,,,0.00,Acu-Link.com,2013-01-04 05:41:00,
2013-01-04 00:56:00,22.3,16.8,30.04,WNW,292,8.9,-999.0,79,-99.99,,,0.00,Acu-Link.com,2013-01-04 05:56:00,
2013-01-04 01:12:00,21.7,16.5,30.04,West,270,8.3,-999.0,80,-99.99,,,0.00,Acu-Link.com,2013-01-04 06:12:00,
2013-01-04 01:27:00,21.4,16.2,30.04,West,270,4.7,-999.0,80,-99.99,,,0.00,Acu-Link.com,2013-01-04 06:27:00,
2013-01-04 01:42:00,21.0,15.5,30.04,West,270,4.7,-999.0,79,-99.99,,,0.00,Acu-Link.com,2013-01-04 06:42:00,
2013-01-04 01:57:00,20.5,15.0,30.04,WSW,247,3.2,-999.0,79,-99.99,,,0.00,Acu-Link.com,2013-01-04 06:57:00,
2013-01-04 02:13:00,20.1,14.7,30.04,SW,225,6.3,-999.0,79,-99.99,,,0.00,Acu-Link.com,2013-01-04 07:13:00,
2013-01-04 02:28:00,20.1,14.7,30.04,WSW,247,4.2,-999.0,79,-99.99,,,0.00,Acu-Link.com,2013-01-04 07:28:00,
2013-01-04 02:43:00,19.8,14.6,30.05,WSW,247,3.2,-999.0,80,-99.99,,,0.00,Acu-Link.com,2013-01-04 07:43:00,
2013-01-04 02:59:00,19.8,14.6,30.04,West,270,4.7,-999.0,80,-99.99,,,0.00,Acu-Link.com,2013-01-04 07:59:00,
2013-01-04 03:14:00,19.0,13.9,30.04,SW,225,3.2,-999.0,80,-99.99,,,0.00,Acu-Link.com,2013-01-04 08:14:00,
2013-01-04 03:29:00,18.7,13.9,30.04,SW,225,3.2,-999.0,81,-99.99,,,0.00,Acu-Link.com,2013-01-04 08:29:00,
2013-01-04 03:45:00,18.1,13.5,30.05,WSW,247,2.2,-999.0,82,-99.99,,,0.00,Acu-Link.com,2013-01-04 08:45:00,
2013-01-04 04:00:00,17.6,13.6,30.04,WSW,247,2.7,-999.0,84,-99.99,,,0.00,Acu-Link.com,2013-01-04 09:00:00,
2013-01-04 04:15:00,17.4,13.7,30.04,SW,225,2.7,-999.0,85,-99.99,,,0.00,Acu-Link.com,2013-01-04 09:15:00,
2013-01-04 04:30:00,17.4,13.7,30.05,SW,225,4.2,-999.0,85,-99.99,,,0.00,Acu-Link.com,2013-01-04 09:30:00,
2013-01-04 04:45:00,17.6,13.6,30.04,SSW,202,6.8,-999.0,84,-99.99,,,0.00,Acu-Link.com,2013-01-04 09:45:00,
2013-01-04 05:01:00,17.8,13.5,30.04,SSW,202,6.3,-999.0,83,-99.99,,,0.00,Acu-Link.com,2013-01-04 10:01:00,
2013-01-04 05:16:00,18.1,13.5,30.04,West,270,9.4,-999.0,82,-99.99,,,0.00,Acu-Link.com,2013-01-04 10:16:00,
2013-01-04 05:31:00,18.3,13.2,30.04,SW,225,6.8,-999.0,80,-99.99,,,0.00,Acu-Link.com,2013-01-04 10:31:00,
2013-01-04 05:47:00,18.3,13.2,30.04,WSW,247,5.3,-999.0,80,-99.99,,,0.00,Acu-Link.com,2013-01-04 10:47:00,
2013-01-04 06:02:00,18.1,13.3,30.03,SW,225,8.9,-999.0,81,-99.99,,,0.00,Acu-Link.com,2013-01-04 11:02:00,
2013-01-04 06:17:00,18.0,13.2,30.03,West,270,6.8,-999.0,81,-99.99,,,0.00,Acu-Link.com,2013-01-04 11:17:00,
2013-01-04 06:32:00,17.8,13.0,30.03,SW,225,4.7,-999.0,81,-99.99,,,0.00,Acu-Link.com,2013-01-04 11:32:00,
2013-01-04 06:48:00,17.8,13.0,30.05,WSW,247,6.8,-999.0,81,-99.99,,,0.00,Acu-Link.com,2013-01-04 11:48:00,
2013-01-04 07:03:00,18.0,13.2,30.04,SW,225,6.8,-999.0,81,-99.99,,,0.00,Acu-Link.com,2013-01-04 12:03:00,
2013-01-04 07:18:00,17.8,13.0,30.04,SSW,202,7.8,-999.0,81,-99.99,,,0.00,Acu-Link.com,2013-01-04 12:18:00,
2013-01-04 07:33:00,17.8,13.3,30.03,West,270,9.4,-999.0,82,-99.99,,,0.00,Acu-Link.com,2013-01-04 12:33:00,
2013-01-04 07:48:00,17.8,13.3,30.04,SW,225,8.3,-999.0,82,-99.99,,,0.00,Acu-Link.com,2013-01-04 12:48:00,
2013-01-04 08:03:00,17.6,13.1,30.04,WSW,247,7.3,-999.0,82,-99.99,,,0.00,Acu-Link.com,2013-01-04 13:03:00,
2013-01-04 08:19:00,17.8,13.0,30.05,SSW,202,9.9,-999.0,81,-99.99,,,0.00,Acu-Link.com,2013-01-04 13:19:00,
2013-01-04 08:34:00,18.3,12.9,30.05,SW,225,13.5,-999.0,79,-99.99,,,0.00,Acu-Link.com,2013-01-04 13:34:00,
2013-01-04 08:49:00,18.7,13.0,30.05,West,270,7.8,-999.0,78,-99.99,,,0.00,Acu-Link.com,2013-01-04 13:49:00,
2013-01-04 09:04:00,19.2,12.9,30.06,WSW,247,8.3,-999.0,76,-99.99,,,0.00,Acu-Link.com,2013-01-04 14:04:00,
2013-01-04 09:20:00,20.1,13.2,30.07,SW,225,7.8,-999.0,74,-99.99,,,0.00,Acu-Link.com,2013-01-04 14:20:00,
2013-01-04 09:35:00,20.8,13.2,30.07,West,270,11.4,-999.0,72,-99.99,,,0.00,Acu-Link.com,2013-01-04 14:35:00,
2013-01-04 09:50:00,20.8,12.9,30.08,SW,225,13.0,-999.0,71,-99.99,,,0.00,Acu-Link.com,2013-01-04 14:50:00,
2013-01-04 10:05:00,21.4,12.5,30.08,West,270,8.9,-999.0,68,-99.99,,,0.00,Acu-Link.com,2013-01-04 15:05:00,
2013-01-04 10:21:00,22.3,12.7,30.08,WSW,247,17.1,-999.0,66,-99.99,,,0.00,Acu-Link.com,2013-01-04 15:21:00,
2013-01-04 10:36:00,22.8,12.8,30.07,WSW,247,10.9,-999.0,65,-99.99,,,0.00,Acu-Link.com,2013-01-04 15:36:00,
2013-01-04 10:51:00,22.8,12.8,30.07,SSW,202,9.9,-999.0,65,-99.99,,,0.00,Acu-Link.com,2013-01-04 15:51:00,
2013-01-04 11:06:00,22.8,13.2,30.08,SW,225,10.9,-999.0,66,-99.99,,,0.00,Acu-Link.com,2013-01-04 16:06:00,
2013-01-04 11:22:00,23.7,13.3,30.08,SW,225,11.9,-999.0,64,-99.99,,,0.00,Acu-Link.com,2013-01-04 16:22:00,
2013-01-04 11:37:00,24.1,13.7,30.08,West,270,9.4,-999.0,64,-99.99,,,0.00,Acu-Link.com,2013-01-04 16:37:00,
2013-01-04 11:52:00,24.8,14.4,30.07,West,270,9.4,-999.0,64,-99.99,,,0.00,Acu-Link.com,2013-01-04 16:52:00,
2013-01-04 12:08:00,24.8,14.4,30.07,WSW,247,15.0,-999.0,64,-99.99,,,0.00,Acu-Link.com,2013-01-04 17:08:00,
2013-01-04 12:23:00,25.5,15.0,30.08,SW,225,7.8,-999.0,64,-99.99,,,0.00,Acu-Link.com,2013-01-04 17:23:00,
2013-01-04 12:38:00,25.0,14.6,30.07,West,270,12.5,-999.0,64,-99.99,,,0.00,Acu-Link.com,2013-01-04 17:38:00,
2013-01-04 12:53:00,25.3,14.5,30.06,West,270,9.4,-999.0,63,-99.99,,,0.00,Acu-Link.com,2013-01-04 17:53:00,
2013-01-04 13:08:00,25.7,15.2,30.05,SW,225,13.0,-999.0,64,-99.99,,,0.00,Acu-Link.com,2013-01-04 18:08:00,
2013-01-04 13:24:00,27.0,16.1,30.04,WSW,247,17.1,-999.0,63,-99.99,,,0.00,Acu-Link.com,2013-01-04 18:24:00,
2013-01-04 13:39:00,27.5,16.2,30.05,SSW,202,8.9,-999.0,62,-99.99,,,0.00,Acu-Link.com,2013-01-04 18:39:00,
2013-01-04 13:54:00,26.8,15.9,30.04,SSW,202,15.5,-999.0,63,-99.99,,,0.00,Acu-Link.com,2013-01-04 18:54:00,
2013-01-04 14:09:00,27.7,17.1,30.03,West,270,9.4,-999.0,64,-99.99,,,0.00,Acu-Link.com,2013-01-04 19:09:00,
2013-01-04 14:25:00,29.1,18.1,30.03,SSW,202,7.3,-999.0,63,-99.99,,,0.00,Acu-Link.com,2013-01-04 19:25:00,
2013-01-04 14:40:00,29.1,18.1,30.03,WNW,292,11.4,-999.0,63,-99.99,,,0.00,Acu-Link.com,2013-01-04 19:40:00,
2013-01-04 14:55:00,29.3,18.3,30.02,SSW,202,11.4,-999.0,63,-99.99,,,0.00,Acu-Link.com,2013-01-04 19:55:00,
2013-01-04 15:11:00,30.2,19.1,30.02,West,270,18.6,-999.0,63,-99.99,,,0.00,Acu-Link.com,2013-01-04 20:11:00,
2013-01-04 15:26:00,30.4,19.3,30.03,SW,225,10.4,-999.0,63,-99.99,,,0.00,Acu-Link.com,2013-01-04 20:26:00,
2013-01-04 15:41:00,30.2,19.1,30.03,SW,225,15.5,-999.0,63,-99.99,,,0.00,Acu-Link.com,2013-01-04 20:41:00,
2013-01-04 15:56:00,30.0,19.0,30.03,SW,225,14.5,-999.0,63,-99.99,,,0.00,Acu-Link.com,2013-01-04 20:56:00,
2013-01-04 16:11:00,30.2,19.1,30.03,SSW,202,12.5,-999.0,63,-99.99,,,0.00,Acu-Link.com,2013-01-04 21:11:00,
2013-01-04 16:27:00,30.4,19.7,30.03,West,270,9.9,-999.0,64,-99.99,,,0.00,Acu-Link.com,2013-01-04 21:27:00,
2013-01-04 16:42:00,30.4,19.7,30.03,West,270,9.9,-999.0,64,-99.99,,,0.00,Acu-Link.com,2013-01-04 21:42:00,
2013-01-04 16:57:00,29.8,19.1,30.03,SW,225,6.3,-999.0,64,-99.99,,,0.00,Acu-Link.com,2013-01-04 21:57:00,
2013-01-04 17:13:00,29.5,19.2,30.05,SSW,202,8.9,-999.0,65,-99.99,,,0.00,Acu-Link.com,2013-01-04 22:13:00,
2013-01-04 17:28:00,28.8,18.9,30.03,SSW,202,14.0,-999.0,66,-99.99,,,0.00,Acu-Link.com,2013-01-04 22:28:00,
2013-01-04 17:43:00,28.4,18.9,30.04,SW,225,6.8,-999.0,67,-99.99,,,0.00,Acu-Link.com,2013-01-04 22:43:00,
2013-01-04 17:58:00,28.2,19.0,30.04,SW,225,8.3,-999.0,68,-99.99,,,0.00,Acu-Link.com,2013-01-04 22:58:00,
2013-01-04 18:14:00,27.5,18.7,30.04,SSW,202,6.8,-999.0,69,-99.99,,,0.00,Acu-Link.com,2013-01-04 23:14:00,
2013-01-04 18:29:00,27.3,18.8,30.03,SW,225,8.9,-999.0,70,-99.99,,,0.00,Acu-Link.com,2013-01-04 23:29:00,
2013-01-04 18:44:00,27.1,18.6,30.04,SSW,202,11.9,-999.0,70,-99.99,,,0.00,Acu-Link.com,2013-01-04 23:44:00,
2013-01-04 19:00:00,26.8,18.7,30.03,SW,225,8.9,-999.0,71,-99.99,,,0.00,Acu-Link.com,2013-01-05 00:00:00,
2013-01-04 19:15:00,26.8,18.7,30.03,SSW,202,9.4,-999.0,71,-99.99,,,0.00,Acu-Link.com,2013-01-05 00:15:00,
2013-01-04 19:30:00,26.8,18.7,30.04,West,270,10.4,-999.0,71,-99.99,,,0.00,Acu-Link.com,2013-01-05 00:30:00,
2013-01-04 19:45:00,26.8,18.7,30.05,SSW,202,11.9,-999.0,71,-99.99,,,0.00,Acu-Link.com,2013-01-05 00:45:00,
2013-01-04 20:01:00,26.6,18.5,30.04,SSW,202,11.4,-999.0,71,-99.99,,,0.00,Acu-Link.com,2013-01-05 01:01:00,
2013-01-04 20:16:00,26.8,18.7,30.04,SW,225,9.4,-999.0,71,-99.99,,,0.00,Acu-Link.com,2013-01-05 01:16:00,
2013-01-04 20:31:00,26.6,18.8,30.04,SSW,202,10.4,-999.0,72,-99.99,,,0.00,Acu-Link.com,2013-01-05 01:31:00,
2013-01-04 20:46:00,26.4,18.6,30.04,SW,225,7.8,-999.0,72,-99.99,,,0.00,Acu-Link.com,2013-01-05 01:46:00,
2013-01-04 21:02:00,26.4,18.9,30.04,West,270,9.9,-999.0,73,-99.99,,,0.00,Acu-Link.com,2013-01-05 02:02:00,
2013-01-04 21:17:00,26.6,19.1,30.04,SW,225,7.8,-999.0,73,-99.99,,,0.00,Acu-Link.com,2013-01-05 02:17:00,
2013-01-04 21:32:00,26.2,18.7,30.04,SW,225,6.8,-999.0,73,-99.99,,,0.00,Acu-Link.com,2013-01-05 02:32:00,
2013-01-04 21:47:00,25.5,18.7,30.04,SSW,202,5.3,-999.0,75,-99.99,,,0.00,Acu-Link.com,2013-01-05 02:47:00,
2013-01-04 22:02:00,25.0,18.5,30.04,SSW,202,6.8,-999.0,76,-99.99,,,0.00,Acu-Link.com,2013-01-05 03:02:00,
2013-01-04 22:18:00,24.6,18.1,30.04,SSW,202,6.3,-999.0,76,-99.99,,,0.00,Acu-Link.com,2013-01-05 03:18:00,
2013-01-04 22:33:00,24.4,18.2,30.04,SSW,202,6.8,-999.0,77,-99.99,,,0.00,Acu-Link.com,2013-01-05 03:33:00,
2013-01-04 22:48:00,24.3,18.4,30.05,SW,225,6.3,-999.0,78,-99.99,,,0.00,Acu-Link.com,2013-01-05 03:48:00,
2013-01-04 23:03:00,24.6,18.7,30.05,SSW,202,9.4,-999.0,78,-99.99,,,0.00,Acu-Link.com,2013-01-05 04:03:00,
2013-01-04 23:19:00,24.4,18.5,30.05,SSW,202,7.8,-999.0,78,-99.99,,,0.00,Acu-Link.com,2013-01-05 04:19:00,
2013-01-04 23:34:00,24.4,18.8,30.06,SSW,202,6.3,-999.0,79,-99.99,,,0.00,Acu-Link.com,2013-01-05 04:34:00,
2013-01-04 23:49:00,23.9,18.4,30.05,SSW,202,5.8,-999.0,79,-99.99,,,0.00,Acu-Link.com,2013-01-05 04:49:00,